Latest Weather Observations for Nullo Mountain

IDN60801

Issued at 9:32 pm EDT Thursday 23 November 2017 (issued every 30 minutes, with the page automatically refreshed every 10 minutes)

About weather observations | Map of weather stations | Latest weather observations for NSW | Other Formats
Station Details ID: 062100 Name: NULLO MOUNTAIN AWS Lat: -32.72 Lon: 150.23 Height: 1130.0 m
Data from the previous 72 hours. | See also: Recent months at Nullo Mountain
Date/Time
EDT
Temp
°C
App
Temp
°C
Dew
Point
°C
Rel
Hum
%
Delta-T
°C
Wind Press
QNH
hPa
Press
MSL
hPa
Rain since
9am
mm
Dir  Spd
km/h
Gust
km/h
Spd
kts
Gust
kts
23/09:30pm 14.1 12.6 9.3 73 2.6 ESE 7 11 4 6 - - 4.2
23/09:00pm 14.7 12.6 9.7 72 2.7 ESE 11 15 6 8 - - 4.2
23/08:30pm 14.1 13.6 9.5 74 2.5 W 2 4 1 2 - - 4.2
23/08:00pm 15.2 14.7 9.3 68 3.2 WNW 2 4 1 2 - - 4.2
23/07:30pm 16.0 15.7 8.7 62 4.0 CALM 0 4 0 2 - - 4.2
23/07:00pm 17.4 17.0 8.3 55 4.9 CALM 0 2 0 1 - - 4.2
23/06:30pm 18.2 17.2 8.7 54 5.2 SSW 4 7 2 4 - - 4.2
23/06:00pm 18.4 17.7 8.4 52 5.5 S 2 4 1 2 - - 4.2
23/05:30pm 17.6 16.3 9.2 58 4.6 SSE 6 7 3 4 - - 4.2
23/05:00pm 16.9 15.3 10.3 65 3.7 SSE 9 15 5 8 - - 4.2
23/04:30pm 16.2 13.4 10.1 67 3.4 S 15 22 8 12 - - 4.2
23/04:00pm 18.6 17.0 8.6 52 5.5 SW 7 19 4 10 - - 4.2
23/03:30pm 21.0 20.1 9.3 47 6.6 NNW 4 9 2 5 - - 4.2
23/03:00pm 20.5 18.8 8.2 45 6.8 NNW 7 15 4 8 - - 4.2
23/02:30pm 19.4 18.1 10.1 55 5.3 N 7 11 4 6 - - 4.2
23/02:00pm 18.5 18.2 11.6 64 4.0 NNW 4 6 2 3 - - 4.2
23/01:30pm 16.0 15.7 11.6 75 2.5 N 4 6 2 3 - - 4.2
23/01:00pm 14.6 15.0 12.6 88 1.2 NNW 2 4 1 2 - - 4.2
23/12:30pm 13.5 12.0 10.5 82 1.7 WNW 9 19 5 10 - - 2.8
23/12:00pm 16.5 15.5 8.7 60 4.2 N 4 6 2 3 - - 0.0
23/11:30am 16.2 14.2 8.7 61 4.1 NW 9 17 5 9 - - 0.0
23/11:00am 17.9 17.2 11.5 66 3.7 NNW 6 13 3 7 - - 0.0
23/10:30am 15.8 14.6 9.5 66 3.5 NW 6 9 3 5 - - 0.0
23/10:00am 15.0 13.8 9.6 70 3.0 NW 6 9 3 5 - - 0.0
23/09:30am 15.2 13.5 10.0 71 2.9 N 9 13 5 7 - - 0.0
23/09:00am 14.9 13.2 9.7 71 2.9 N 9 15 5 8 - - 0.0
23/08:30am 15.2 14.2 10.2 72 2.8 NNE 6 9 3 5 - - 0.0
23/08:00am 13.9 12.8 9.9 77 2.2 NNE 6 11 3 6 - - 0.0
23/07:30am 13.3 12.7 10.5 83 1.5 NE 4 7 2 4 - - 0.0
23/07:00am 12.2 12.0 11.7 97 0.3 E 4 9 2 5 - - 0.0
23/06:30am 10.3 9.7 10.3 100 0.0 E 4 7 2 4 - - 0.0
23/06:00am 9.2 7.9 9.1 99 0.1 E 6 11 3 6 - - 0.0
23/05:30am 9.3 7.4 9.2 99 0.1 E 9 11 5 6 - - 0.0
23/05:00am 9.4 7.9 9.3 99 0.1 E 7 15 4 8 - - 0.0
23/04:30am 9.5 6.9 9.4 99 0.1 E 13 17 7 9 - - 0.0
23/04:00am 9.4 7.6 9.3 99 0.1 E 9 17 5 9 - - 0.0
23/03:30am 9.7 6.8 9.6 99 0.1 E 15 19 8 10 - - 0.0
23/03:00am 10.1 6.5 10.0 99 0.1 E 19 22 10 12 - - 0.0
23/02:30am 10.3 6.6 10.1 99 0.1 E 20 28 11 15 - - 0.0
23/02:00am 10.2 6.5 10.1 99 0.1 E 20 28 11 15 - - 0.0
23/01:30am 10.1 6.4 10.0 99 0.1 E 20 28 11 15 - - 0.0
23/01:00am 10.3 7.1 10.1 99 0.1 ESE 17 22 9 12 - - 0.0
23/12:30am 10.3 7.5 10.0 98 0.2 E 15 20 8 11 - - 0.0
23/12:00am 10.6 8.2 10.1 97 0.3 E 13 20 7 11 - - 0.0
 
Date/Time
EDT
Temp
°C
App
Temp
°C
Dew
Point
°C
Rel
Hum
%
Delta-T
°C
Wind Press
QNH
hPa
Press
MSL
hPa
Rain since
9am
mm
Dir  Spd
km/h
Gust
km/h
Spd
kts
Gust
kts
22/11:30pm 10.6 6.8 9.8 95 0.4 E 20 28 11 15 - - 0.0
22/11:00pm 10.9 7.2 9.5 91 0.7 E 19 26 10 14 - - 0.0
22/10:30pm 11.2 7.5 9.5 89 0.9 E 19 24 10 13 - - 0.0
22/10:00pm 11.7 7.1 9.6 87 1.1 E 24 35 13 19 - - 0.0
22/09:30pm 12.1 7.8 9.3 83 1.5 E 22 33 12 18 - - 0.0
22/09:00pm 12.7 8.0 9.3 80 1.8 E 24 32 13 17 - - 0.0
22/08:30pm 13.2 8.9 9.3 77 2.1 E 22 33 12 18 - - 0.0
22/08:00pm 14.0 10.0 9.0 72 2.7 E 20 32 11 17 - - 0.0
22/07:30pm 14.6 10.7 8.5 67 3.3 E 19 28 10 15 - - 0.0
22/07:00pm 15.6 12.8 8.4 62 3.9 ESE 13 24 7 13 - - 0.0
22/06:30pm 16.4 12.7 8.1 58 4.5 E 17 28 9 15 - - 0.0
22/06:00pm 17.1 14.6 8.3 56 4.8 E 11 22 6 12 - - 0.0
22/05:30pm 16.8 13.1 8.0 56 4.7 E 17 28 9 15 - - 0.0
22/05:00pm 18.0 14.8 8.6 54 5.1 ESE 15 28 8 15 - - 0.0
22/04:30pm 18.1 14.3 9.2 56 4.9 ESE 19 28 10 15 - - 0.0
22/04:00pm 18.8 16.4 8.5 51 5.6 E 11 20 6 11 - - 0.0
22/03:30pm 19.4 17.3 9.9 54 5.4 E 11 26 6 14 - - 0.0
22/03:00pm 17.9 15.0 8.2 53 5.3 ESE 13 20 7 11 - - 0.0
22/02:30pm 17.9 14.4 7.3 50 5.7 E 15 24 8 13 - - 0.0
22/02:00pm 18.5 16.5 7.0 47 6.1 E 7 15 4 8 - - 0.0
22/01:30pm 17.6 15.3 7.4 51 5.4 ESE 9 17 5 9 - - 0.0
22/01:00pm 17.0 14.8 6.2 49 5.6 NNE 7 15 4 8 - - 0.0
22/12:30pm 17.4 14.7 7.2 51 5.4 ESE 11 19 6 10 - - 0.0
22/12:00pm 15.9 13.1 6.9 55 4.7 ENE 11 22 6 12 - - 0.0
22/11:30am 16.1 13.4 7.3 56 4.6 NE 11 22 6 12 - - 0.0
22/11:00am 15.7 13.5 8.0 60 4.1 E 9 17 5 9 - - 0.0
22/10:30am 15.5 12.2 9.6 68 3.2 ESE 17 24 9 13 - - 0.0
22/10:00am 14.1 11.7 8.7 70 2.9 ENE 11 22 6 12 - - 0.0
22/09:30am 13.9 11.2 9.1 73 2.6 E 13 22 7 12 - - 0.0
22/09:00am 13.5 10.7 9.9 79 2.0 E 15 24 8 13 - - 0.0
22/08:30am 12.3 9.7 9.5 83 1.5 E 13 26 7 14 - - 0.0
22/08:00am 12.4 9.5 9.8 84 1.4 E 15 30 8 16 - - 0.0
22/07:30am 11.8 8.4 10.5 92 0.7 E 19 32 10 17 - - 0.0
22/07:00am 10.4 7.3 10.2 99 0.1 E 17 30 9 16 - - 0.0
22/06:30am 10.3 7.1 10.1 99 0.1 E 17 30 9 16 - - 0.0
22/06:00am 10.3 7.5 10.1 99 0.1 E 15 28 8 15 - - 0.0
22/05:30am 10.2 7.4 10.1 99 0.1 E 15 28 8 15 - - 0.0
22/05:00am 10.2 7.4 10.1 99 0.1 E 15 30 8 16 - - 0.0
22/04:30am 10.1 6.5 10.0 99 0.1 E 19 26 10 14 - - 0.0
22/04:00am 10.1 8.1 10.0 99 0.1 E 11 24 6 13 - - 0.0
22/03:30am 10.1 8.1 10.0 99 0.1 E 11 24 6 13 - - 0.0
22/03:00am 10.0 6.2 9.9 99 0.1 E 20 28 11 15 - - 0.0
22/02:30am 10.0 5.8 9.9 99 0.1 ESE 22 32 12 17 - - 0.0
22/02:00am 10.0 5.4 9.5 97 0.3 E 24 30 13 16 - - 0.0
22/01:30am 10.1 5.8 9.2 94 0.5 E 22 33 12 18 - - 0.0
22/01:00am 10.1 6.3 9.0 93 0.6 ESE 19 28 10 15 - - 0.0
22/12:30am 9.8 5.8 9.0 95 0.4 ESE 20 28 11 15 - - 0.0
22/12:00am 9.8 6.3 8.7 93 0.6 ESE 17 26 9 14 - - 0.0
 
Date/Time
EDT
Temp
°C
App
Temp
°C
Dew
Point
°C
Rel
Hum
%
Delta-T
°C
Wind Press
QNH
hPa
Press
MSL
hPa
Rain since
9am
mm
Dir  Spd
km/h
Gust
km/h
Spd
kts
Gust
kts
21/11:30pm 9.8 5.8 8.1 89 0.9 ESE 19 28 10 15 - - 0.0
21/11:00pm 10.5 6.3 8.3 86 1.1 ESE 20 28 11 15 - - 0.0
21/10:30pm 10.9 6.8 8.8 87 1.1 ESE 20 32 11 17 - - 0.0
21/10:00pm 11.3 7.8 8.9 85 1.3 ESE 17 24 9 13 - - 0.0
21/09:30pm 11.7 7.9 8.9 83 1.5 ESE 19 24 10 13 - - 0.0
21/09:00pm 12.0 8.1 8.7 80 1.7 E 19 30 10 16 - - 0.0
21/08:30pm 12.8 9.2 8.3 74 2.4 ESE 17 26 9 14 - - 0.0
21/08:00pm 13.6 9.8 7.6 67 3.1 ESE 17 24 9 13 - - 0.0
21/07:30pm 14.4 10.7 6.5 59 4.1 ESE 15 26 8 14 - - 0.0
21/07:00pm 15.2 11.0 5.7 53 4.8 ESE 17 24 9 13 - - 0.0
21/06:30pm 16.3 12.5 5.9 50 5.3 ESE 15 22 8 12 - - 0.0
21/06:00pm 16.9 13.0 5.2 46 6.0 ESE 15 28 8 15 - - 0.0
21/05:30pm 17.4 14.0 5.7 46 6.0 ESE 13 24 7 13 - - 0.0
21/05:00pm 17.5 13.1 4.8 43 6.4 ESE 17 26 9 14 - - 0.0
21/04:30pm 18.0 13.8 5.9 45 6.3 ESE 17 26 9 14 - - 0.0
21/04:00pm 18.0 13.8 5.6 44 6.4 ESE 17 28 9 15 - - 0.0
21/03:30pm 17.8 13.6 5.7 45 6.3 ESE 17 26 9 14 - - 0.0
21/03:00pm 17.6 13.4 5.5 45 6.2 ESE 17 24 9 13 - - 0.0
21/02:30pm 18.5 15.6 8.2 51 5.6 ESE 13 28 7 15 - - 0.0
21/02:00pm 18.0 15.0 7.7 51 5.5 ESE 13 24 7 13 - - 0.0
21/01:30pm 17.1 14.1 7.7 54 5.0 E 13 24 7 13 - - 0.0
21/01:00pm 16.2 13.5 7.2 55 4.7 E 11 24 6 13 - - 0.0
21/12:30pm 17.0 15.3 9.7 62 4.1 E 9 20 5 11 - - 0.0
21/12:00pm 15.5 12.3 8.5 63 3.8 SE 15 22 8 12 - - 0.0
21/11:30am 15.1 12.3 8.6 65 3.5 E 13 28 7 15 - - 0.0
21/11:00am 14.1 11.1 7.9 66 3.3 ESE 13 20 7 11 - - 0.0
21/10:30am 13.5 10.3 8.4 71 2.7 ESE 15 24 8 13 - - 0.0
21/10:00am 13.5 10.3 8.6 72 2.6 E 15 28 8 15 - - 0.0
21/09:30am 11.9 9.4 8.2 78 1.9 E 11 22 6 12 - - 0.0
21/09:00am 11.6 8.0 8.3 80 1.7 ESE 17 24 9 13 - - 0.0
21/08:30am 10.8 6.7 8.6 86 1.2 ESE 20 32 11 17 - - 0.0
21/08:00am 10.8 6.4 8.9 88 1.0 ESE 22 35 12 19 - - 0.0
21/07:30am 9.8 5.8 8.9 94 0.5 ESE 20 35 11 19 - - 0.0
21/07:00am 9.4 4.7 9.1 98 0.2 ESE 24 37 13 20 - - 0.0
21/06:30am 9.3 4.9 8.8 97 0.3 ESE 22 35 12 19 - - 0.0
21/06:00am 9.1 4.9 8.3 95 0.4 ESE 20 28 11 15 - - 0.0
21/05:30am 9.2 5.0 8.1 93 0.6 ESE 20 33 11 18 - - 0.0
21/05:00am 9.1 4.9 8.3 95 0.4 ESE 20 32 11 17 - - 0.0
21/04:30am 9.0 4.9 7.9 93 0.6 ESE 19 28 10 15 - - 0.0
21/04:00am 9.0 4.3 7.9 93 0.6 ESE 22 33 12 18 - - 0.0
21/03:30am 9.5 5.3 8.1 91 0.7 ESE 20 32 11 17 - - 0.0
21/03:00am 9.6 5.6 9.0 96 0.3 ESE 20 28 11 15 - - 0.0
21/02:30am 9.9 6.2 9.3 96 0.3 ESE 19 26 10 14 - - 0.0
21/02:00am 9.9 6.5 9.3 96 0.3 ESE 17 28 9 15 - - 0.0
21/01:30am 10.1 6.1 9.0 93 0.6 ESE 20 32 11 17 - - 0.0
21/01:00am 10.1 5.8 9.2 94 0.5 ESE 22 32 12 17 - - 0.0
21/12:30am 10.0 5.7 9.2 95 0.4 ESE 22 32 12 17 - - 0.0
21/12:00am 10.4 6.5 9.5 94 0.5 ESE 20 35 11 19 - - 0.0
 
Date/Time
EDT
Temp
°C
App
Temp
°C
Dew
Point
°C
Rel
Hum
%
Delta-T
°C
Wind Press
QNH
hPa
Press
MSL
hPa
Rain since
9am
mm
Dir  Spd
km/h
Gust
km/h
Spd
kts
Gust
kts
20/11:30pm 10.7 6.8 9.6 93 0.6 ESE 20 30 11 16 - - 0.0
20/11:00pm 11.0 8.2 9.9 93 0.6 ESE 15 22 8 12 - - 0.0
20/10:30pm 11.3 7.5 9.9 91 0.8 ESE 20 32 11 17 - - 0.0
20/10:00pm 11.8 8.6 10.0 89 1.0 ESE 17 26 9 14 - - 0.0

Other Formats:

Comma delimited format used in spreadsheet applications
http://www.bom.gov.au/fwo/IDN60801/IDN60801.94754.axf

JavaScript Object Notation format (JSON) in row-major order
http://www.bom.gov.au/fwo/IDN60801/IDN60801.94754.json